Time,TemperatureF,DewpointF,PressureIn,WindDirection,WindDirectionDegrees,WindSpeedMPH,WindSpeedGustMPH,Humidity,HourlyPrecipIn,Conditions,Clouds,dailyrainin,SoftwareType,DateUTC
2013-03-24 00:02:00,27.0,20.0,-100.00,North,10,3.0,6.0,77,-99.99,,,-99.99,,2013-03-24 05:02:00,
2013-03-24 00:12:00,27.0,20.0,-100.00,North,10,3.0,6.0,77,-99.99,,,-99.99,,2013-03-24 05:12:00,
2013-03-24 00:32:00,26.0,20.0,-100.00,NNE,30,3.0,7.0,79,-99.99,,,-99.99,,2013-03-24 05:32:00,
2013-03-24 00:43:00,26.0,20.0,-100.00,NNE,30,3.0,7.0,79,-99.99,,,-99.99,,2013-03-24 05:43:00,
2013-03-24 00:52:00,26.0,20.0,-100.00,NNE,30,3.0,7.0,79,-99.99,,,-99.99,,2013-03-24 05:52:00,
2013-03-24 01:02:00,26.0,20.0,-100.00,NNE,30,3.0,7.0,79,-99.99,,,-99.99,,2013-03-24 06:02:00,
2013-03-24 01:12:00,26.0,20.0,-100.00,NNE,30,3.0,7.0,79,-99.99,,,-99.99,,2013-03-24 06:12:00,
2013-03-24 01:32:00,26.0,20.0,-100.00,NE,55,1.0,4.0,79,-99.99,,,-99.99,,2013-03-24 06:32:00,
2013-03-24 01:42:00,26.0,20.0,-100.00,NE,55,1.0,4.0,79,-99.99,,,-99.99,,2013-03-24 06:42:00,
2013-03-24 01:52:00,26.0,20.0,-100.00,NE,55,1.0,4.0,79,-99.99,,,-99.99,,2013-03-24 06:52:00,
2013-03-24 02:02:00,26.0,20.0,-100.00,NE,55,1.0,4.0,79,-99.99,,,-99.99,,2013-03-24 07:02:00,
2013-03-24 02:12:00,26.0,20.0,-100.00,NE,55,1.0,4.0,79,-99.99,,,-99.99,,2013-03-24 07:12:00,
2013-03-24 02:32:00,25.0,19.0,-100.00,NE,55,4.0,9.0,79,-99.99,,,-99.99,,2013-03-24 07:32:00,
2013-03-24 02:42:00,25.0,19.0,-100.00,NE,55,4.0,9.0,79,-99.99,,,-99.99,,2013-03-24 07:42:00,
2013-03-24 02:52:00,25.0,19.0,-100.00,NE,55,4.0,9.0,79,-99.99,,,-99.99,,2013-03-24 07:52:00,
2013-03-24 03:03:00,25.0,19.0,-100.00,NE,55,4.0,9.0,79,-99.99,,,-99.99,,2013-03-24 08:03:00,
2013-03-24 03:12:00,25.0,19.0,-100.00,NE,55,4.0,9.0,79,-99.99,,,-99.99,,2013-03-24 08:12:00,
2013-03-24 03:32:00,25.0,19.0,-100.00,NE,55,1.0,7.0,81,-99.99,,,-99.99,,2013-03-24 08:32:00,
2013-03-24 03:42:00,25.0,19.0,-100.00,NE,55,1.0,7.0,81,-99.99,,,-99.99,,2013-03-24 08:42:00,
2013-03-24 03:52:00,25.0,19.0,-100.00,NE,55,1.0,7.0,81,-99.99,,,-99.99,,2013-03-24 08:52:00,
2013-03-24 04:02:00,25.0,19.0,-100.00,NE,55,1.0,7.0,81,-99.99,,,-99.99,,2013-03-24 09:02:00,
2013-03-24 04:12:00,24.0,20.0,-100.00,ENE,65,2.0,6.0,83,-99.99,,,-99.99,,2013-03-24 09:12:00,
2013-03-24 04:33:00,24.0,20.0,-100.00,ENE,65,2.0,6.0,83,-99.99,,,-99.99,,2013-03-24 09:33:00,
2013-03-24 04:43:00,24.0,20.0,-100.00,ENE,65,2.0,6.0,83,-99.99,,,-99.99,,2013-03-24 09:43:00,
2013-03-24 04:52:00,24.0,20.0,-100.00,ENE,65,2.0,6.0,83,-99.99,,,-99.99,,2013-03-24 09:52:00,
2013-03-24 05:03:00,24.0,20.0,-100.00,ENE,65,2.0,6.0,83,-99.99,,,-99.99,,2013-03-24 10:03:00,
2013-03-24 05:12:00,23.0,20.0,-100.00,NE,50,2.0,10.0,86,-99.99,,,-99.99,,2013-03-24 10:12:00,
2013-03-24 05:33:00,23.0,20.0,-100.00,NE,50,2.0,10.0,86,-99.99,,,-99.99,,2013-03-24 10:33:00,
2013-03-24 05:42:00,23.0,20.0,-100.00,NE,50,2.0,10.0,86,-99.99,,,-99.99,,2013-03-24 10:42:00,
2013-03-24 05:52:00,23.0,20.0,-100.00,NE,50,2.0,10.0,86,-99.99,,,-99.99,,2013-03-24 10:52:00,
2013-03-24 06:03:00,23.0,20.0,-100.00,NE,50,2.0,10.0,86,-99.99,,,-99.99,,2013-03-24 11:03:00,
2013-03-24 06:33:00,23.0,20.0,-100.00,ENE,60,2.0,8.0,88,-99.99,,,-99.99,,2013-03-24 11:33:00,
2013-03-24 06:42:00,23.0,20.0,-100.00,ENE,60,2.0,8.0,88,-99.99,,,-99.99,,2013-03-24 11:42:00,
2013-03-24 06:52:00,23.0,20.0,-100.00,ENE,60,2.0,8.0,88,-99.99,,,-99.99,,2013-03-24 11:52:00,
2013-03-24 07:02:00,23.0,20.0,-100.00,ENE,60,2.0,8.0,88,-99.99,,,-99.99,,2013-03-24 12:02:00,
2013-03-24 07:12:00,23.0,20.0,-100.00,ENE,60,2.0,8.0,88,-99.99,,,-99.99,,2013-03-24 12:12:00,
2013-03-24 07:42:00,22.0,19.0,-100.00,North,0,2.0,3.0,88,-99.99,,,-99.99,,2013-03-24 12:42:00,
2013-03-24 07:52:00,22.0,19.0,-100.00,North,0,2.0,3.0,88,-99.99,,,-99.99,,2013-03-24 12:52:00,
2013-03-24 08:02:00,22.0,19.0,-100.00,North,0,2.0,3.0,88,-99.99,,,-99.99,,2013-03-24 13:02:00,
2013-03-24 08:12:00,22.0,19.0,-100.00,North,0,2.0,3.0,88,-99.99,,,-99.99,,2013-03-24 13:12:00,
2013-03-24 08:33:00,23.0,19.0,-100.00,NE,45,3.0,7.0,85,-99.99,,,-99.99,,2013-03-24 13:33:00,
2013-03-24 08:43:00,23.0,19.0,-100.00,NE,45,3.0,7.0,85,-99.99,,,-99.99,,2013-03-24 13:43:00,
2013-03-24 08:52:00,23.0,19.0,-100.00,NE,45,3.0,7.0,85,-99.99,,,-99.99,,2013-03-24 13:52:00,
2013-03-24 09:02:00,23.0,19.0,-100.00,NE,45,3.0,7.0,85,-99.99,,,-99.99,,2013-03-24 14:02:00,
2013-03-24 09:12:00,23.0,19.0,-100.00,NE,45,3.0,7.0,85,-99.99,,,-99.99,,2013-03-24 14:12:00,
2013-03-24 09:33:00,25.0,20.0,-100.00,NE,35,3.0,9.0,83,-99.99,,,-99.99,,2013-03-24 14:33:00,
2013-03-24 09:43:00,25.0,20.0,-100.00,NE,35,3.0,9.0,83,-99.99,,,-99.99,,2013-03-24 14:43:00,
2013-03-24 09:52:00,25.0,20.0,-100.00,NE,35,3.0,9.0,83,-99.99,,,-99.99,,2013-03-24 14:52:00,
2013-03-24 10:02:00,25.0,20.0,-100.00,NE,35,3.0,9.0,83,-99.99,,,-99.99,,2013-03-24 15:02:00,
2013-03-24 10:12:00,25.0,20.0,-100.00,NE,35,3.0,9.0,83,-99.99,,,-99.99,,2013-03-24 15:12:00,
2013-03-24 10:43:00,27.0,21.0,-100.00,NE,45,4.0,11.0,79,-99.99,,,-99.99,,2013-03-24 15:43:00,
2013-03-24 10:53:00,27.0,21.0,-100.00,NE,45,4.0,11.0,79,-99.99,,,-99.99,,2013-03-24 15:53:00,
2013-03-24 11:03:00,27.0,21.0,-100.00,NE,45,4.0,11.0,79,-99.99,,,-99.99,,2013-03-24 16:03:00,
2013-03-24 11:12:00,27.0,21.0,-100.00,NE,45,4.0,11.0,79,-99.99,,,-99.99,,2013-03-24 16:12:00,
2013-03-24 11:43:00,28.0,21.0,-100.00,ENE,60,7.0,15.0,75,-99.99,,,-99.99,,2013-03-24 16:43:00,
2013-03-24 11:52:00,28.0,21.0,-100.00,ENE,60,7.0,15.0,75,-99.99,,,-99.99,,2013-03-24 16:52:00,
2013-03-24 12:02:00,28.0,21.0,-100.00,ENE,60,7.0,15.0,75,-99.99,,,-99.99,,2013-03-24 17:02:00,
2013-03-24 12:12:00,28.0,21.0,-100.00,ENE,60,7.0,15.0,75,-99.99,,,-99.99,,2013-03-24 17:12:00,
2013-03-24 12:43:00,29.0,20.0,-100.00,East,85,7.0,17.0,70,-99.99,,,-99.99,,2013-03-24 17:43:00,
2013-03-24 12:53:00,29.0,20.0,-100.00,East,85,7.0,17.0,70,-99.99,,,-99.99,,2013-03-24 17:53:00,
2013-03-24 13:03:00,29.0,20.0,-100.00,East,85,7.0,17.0,70,-99.99,,,-99.99,,2013-03-24 18:03:00,
2013-03-24 13:12:00,29.0,20.0,-100.00,East,85,7.0,17.0,70,-99.99,,,-99.99,,2013-03-24 18:12:00,
2013-03-24 13:33:00,29.0,20.0,-100.00,NNE,20,7.0,17.0,69,-99.99,,,-99.99,,2013-03-24 18:33:00,
2013-03-24 13:43:00,29.0,20.0,-100.00,NNE,20,7.0,17.0,69,-99.99,,,-99.99,,2013-03-24 18:43:00,
2013-03-24 13:52:00,29.0,20.0,-100.00,NNE,20,7.0,17.0,69,-99.99,,,-99.99,,2013-03-24 18:52:00,
2013-03-24 14:02:00,29.0,20.0,-100.00,NNE,20,7.0,17.0,69,-99.99,,,-99.99,,2013-03-24 19:02:00,
2013-03-24 14:12:00,29.0,20.0,-100.00,NNE,20,7.0,17.0,69,-99.99,,,-99.99,,2013-03-24 19:12:00,
2013-03-24 14:32:00,30.0,21.0,-100.00,NE,45,8.0,14.0,67,-99.99,,,-99.99,,2013-03-24 19:32:00,
2013-03-24 14:43:00,30.0,21.0,-100.00,NE,45,8.0,14.0,67,-99.99,,,-99.99,,2013-03-24 19:43:00,
2013-03-24 14:53:00,30.0,21.0,-100.00,NE,45,8.0,14.0,67,-99.99,,,-99.99,,2013-03-24 19:53:00,
2013-03-24 15:02:00,30.0,21.0,-100.00,NE,45,8.0,14.0,67,-99.99,,,-99.99,,2013-03-24 20:02:00,
2013-03-24 15:12:00,30.0,21.0,-100.00,NE,45,8.0,14.0,67,-99.99,,,-99.99,,2013-03-24 20:12:00,
2013-03-24 15:33:00,32.0,21.0,-100.00,ENE,65,4.0,12.0,64,-99.99,,,-99.99,,2013-03-24 20:33:00,
2013-03-24 15:43:00,32.0,21.0,-100.00,ENE,65,4.0,12.0,64,-99.99,,,-99.99,,2013-03-24 20:43:00,
2013-03-24 15:53:00,32.0,21.0,-100.00,ENE,65,4.0,12.0,64,-99.99,,,-99.99,,2013-03-24 20:53:00,
2013-03-24 16:02:00,32.0,21.0,-100.00,ENE,65,4.0,12.0,64,-99.99,,,-99.99,,2013-03-24 21:02:00,
2013-03-24 16:12:00,32.0,21.0,-100.00,ENE,65,4.0,12.0,64,-99.99,,,-99.99,,2013-03-24 21:12:00,
2013-03-24 16:33:00,31.0,21.0,-100.00,NNE,30,4.0,12.0,66,-99.99,,,-99.99,,2013-03-24 21:33:00,
2013-03-24 16:43:00,31.0,21.0,-100.00,NNE,30,4.0,12.0,66,-99.99,,,-99.99,,2013-03-24 21:43:00,
2013-03-24 16:53:00,31.0,21.0,-100.00,NNE,30,4.0,12.0,66,-99.99,,,-99.99,,2013-03-24 21:53:00,
2013-03-24 17:02:00,31.0,21.0,-100.00,NNE,30,4.0,12.0,66,-99.99,,,-99.99,,2013-03-24 22:02:00,
2013-03-24 17:13:00,31.0,21.0,-100.00,NNE,30,4.0,12.0,66,-99.99,,,-99.99,,2013-03-24 22:13:00,
2013-03-24 17:33:00,30.0,21.0,-100.00,North,0,7.0,14.0,69,-99.99,,,-99.99,,2013-03-24 22:33:00,
2013-03-24 17:43:00,30.0,21.0,-100.00,North,0,7.0,14.0,69,-99.99,,,-99.99,,2013-03-24 22:43:00,
2013-03-24 17:52:00,30.0,21.0,-100.00,North,0,7.0,14.0,69,-99.99,,,-99.99,,2013-03-24 22:52:00,
2013-03-24 18:02:00,30.0,21.0,-100.00,North,0,7.0,14.0,69,-99.99,,,-99.99,,2013-03-24 23:02:00,
2013-03-24 18:12:00,30.0,21.0,-100.00,North,0,7.0,14.0,69,-99.99,,,-99.99,,2013-03-24 23:12:00,
2013-03-24 18:32:00,29.0,22.0,-100.00,NNE,20,6.0,14.0,75,-99.99,,,-99.99,,2013-03-24 23:32:00,
2013-03-24 18:42:00,29.0,22.0,-100.00,NNE,20,6.0,14.0,75,-99.99,,,-99.99,,2013-03-24 23:42:00,
2013-03-24 18:53:00,29.0,22.0,-100.00,NNE,20,6.0,14.0,75,-99.99,,,-99.99,,2013-03-24 23:53:00,
2013-03-24 19:02:00,29.0,22.0,-100.00,NNE,20,6.0,14.0,75,-99.99,,,-99.99,,2013-03-25 00:02:00,
2013-03-24 19:12:00,29.0,22.0,-100.00,NNE,20,6.0,14.0,75,-99.99,,,-99.99,,2013-03-25 00:12:00,
2013-03-24 19:43:00,26.0,23.0,-100.00,North,0,7.0,18.0,91,-99.99,,,-99.99,,2013-03-25 00:43:00,
2013-03-24 19:53:00,26.0,23.0,-100.00,North,0,7.0,18.0,91,-99.99,,,-99.99,,2013-03-25 00:53:00,
2013-03-24 20:02:00,26.0,23.0,-100.00,North,0,7.0,18.0,91,-99.99,,,-99.99,,2013-03-25 01:02:00,
2013-03-24 20:12:00,26.0,23.0,-100.00,North,0,7.0,18.0,91,-99.99,,,-99.99,,2013-03-25 01:12:00,
2013-03-24 20:42:00,24.0,21.0,-100.00,NNE,15,7.0,13.0,88,-99.99,,,-99.99,,2013-03-25 01:42:00,
2013-03-24 20:52:00,24.0,21.0,-100.00,NNE,15,7.0,13.0,88,-99.99,,,-99.99,,2013-03-25 01:52:00,
2013-03-24 21:02:00,24.0,21.0,-100.00,NNE,15,7.0,13.0,88,-99.99,,,-99.99,,2013-03-25 02:02:00,
2013-03-24 21:12:00,24.0,21.0,-100.00,NNE,15,7.0,13.0,88,-99.99,,,-99.99,,2013-03-25 02:12:00,
2013-03-24 21:33:00,24.0,20.0,-100.00,North,10,5.0,12.0,88,-99.99,,,-99.99,,2013-03-25 02:33:00,
2013-03-24 21:43:00,23.0,20.0,-100.00,NNE,20,4.0,12.0,88,-99.99,,,-99.99,,2013-03-25 02:43:00,
2013-03-24 21:52:00,23.0,20.0,-100.00,NNE,20,4.0,12.0,88,-99.99,,,-99.99,,2013-03-25 02:52:00,
2013-03-24 22:02:00,23.0,20.0,-100.00,NNE,20,4.0,12.0,88,-99.99,,,-99.99,,2013-03-25 03:02:00,
2013-03-24 22:13:00,23.0,20.0,-100.00,NNE,20,4.0,12.0,88,-99.99,,,-99.99,,2013-03-25 03:13:00,
2013-03-24 22:33:00,22.0,19.0,-100.00,NNE,15,4.0,14.0,89,-99.99,,,-99.99,,2013-03-25 03:33:00,
2013-03-24 22:43:00,23.0,20.0,-100.00,NE,35,7.0,14.0,89,-99.99,,,-99.99,,2013-03-25 03:43:00,
2013-03-24 22:53:00,23.0,20.0,-100.00,NE,35,7.0,14.0,89,-99.99,,,-99.99,,2013-03-25 03:53:00,
2013-03-24 23:02:00,23.0,20.0,-100.00,NE,35,7.0,14.0,89,-99.99,,,-99.99,,2013-03-25 04:02:00,
2013-03-24 23:12:00,23.0,20.0,-100.00,NE,35,7.0,14.0,89,-99.99,,,-99.99,,2013-03-25 04:12:00,
2013-03-24 23:43:00,20.0,18.0,-100.00,NNE,20,4.0,9.0,92,-99.99,,,-99.99,,2013-03-25 04:43:00,
2013-03-24 23:52:00,20.0,18.0,-100.00,NNE,20,4.0,9.0,92,-99.99,,,-99.99,,2013-03-25 04:52:00,